createdAt,value
2018-03-14T00:00:00.763Z,7.15
2018-03-14T00:02:32.104Z,12.88
2018-03-14T00:05:19.432Z,5.28
2018-03-14T00:07:47.674Z,6.50
2018-03-14T00:10:20.021Z,5.68
2018-03-14T00:12:50.947Z,6.90
2018-03-14T00:15:22.883Z,4.68
2018-03-14T00:17:50.846Z,6.37
2018-03-14T00:20:19.449Z,5.35
2018-03-14T00:22:48.528Z,5.47
2018-03-14T00:25:22.630Z,4.95
2018-03-14T00:27:54.242Z,6.40
2018-03-14T00:30:26.961Z,6.60
2018-03-14T00:32:54.378Z,5.18
2018-03-14T00:35:21.821Z,7.93
2018-03-14T00:37:49.247Z,4.28
2018-03-14T00:40:16.668Z,7.15
2018-03-14T00:42:44.108Z,5.50
2018-03-14T00:45:11.916Z,5.72
2018-03-14T00:47:39.353Z,5.03
2018-03-14T00:50:06.777Z,7.57
2018-03-14T00:52:34.239Z,4.35
2018-03-14T00:55:01.649Z,6.65
2018-03-14T00:57:29.085Z,4.35
2018-03-14T00:59:56.520Z,8.40
2018-03-14T01:02:23.952Z,5.32
2018-03-14T01:04:51.380Z,6.37
2018-03-14T01:07:18.814Z,8.65
2018-03-14T01:09:46.244Z,6.93
2018-03-14T01:12:14.065Z,5.85
2018-03-14T01:14:42.068Z,5.70
2018-03-14T01:17:10.078Z,8.95
2018-03-14T01:19:37.502Z,6.53
2018-03-14T01:22:05.325Z,6.75
2018-03-14T01:24:32.749Z,6.22
2018-03-14T01:27:00.177Z,6.22
2018-03-14T01:29:27.996Z,7.03
2018-03-14T01:31:55.433Z,7.10
2018-03-14T01:34:22.870Z,7.15
2018-03-14T01:36:50.305Z,7.47
2018-03-14T01:39:17.728Z,8.38
2018-03-14T01:41:45.146Z,8.90
2018-03-14T01:44:12.588Z,6.90
2018-03-14T01:46:40.019Z,8.23
2018-03-14T01:49:07.444Z,8.27
2018-03-14T01:51:34.885Z,6.53
2018-03-14T01:54:02.310Z,8.20
2018-03-14T01:56:29.736Z,10.77
2018-03-14T01:58:57.169Z,6.85
2018-03-14T02:01:24.591Z,8.85
2018-03-14T02:03:52.050Z,7.68
2018-03-14T02:06:19.472Z,8.95
2018-03-14T02:08:46.902Z,8.93
2018-03-14T02:11:14.341Z,10.98
2018-03-14T02:13:41.787Z,9.00
2018-03-14T02:16:09.217Z,7.25
2018-03-14T02:18:36.636Z,6.90
2018-03-14T02:21:04.061Z,8.20
2018-03-14T02:23:31.484Z,9.48
2018-03-14T02:25:58.916Z,9.73
2018-03-14T02:28:26.334Z,7.00
2018-03-14T02:30:53.756Z,8.35
2018-03-14T02:33:21.176Z,7.65
2018-03-14T02:35:48.608Z,9.73
2018-03-14T02:38:16.024Z,9.10
2018-03-14T02:40:43.465Z,10.40
2018-03-14T02:43:11.285Z,8.52
2018-03-14T02:45:38.712Z,10.63
2018-03-14T02:48:06.138Z,8.55
2018-03-14T02:50:33.968Z,9.85
2018-03-14T02:53:01.409Z,7.68
2018-03-14T02:55:28.835Z,10.65
2018-03-14T02:57:56.266Z,9.73
2018-03-14T03:00:23.696Z,8.32
2018-03-14T03:02:51.130Z,11.40
2018-03-14T03:05:18.555Z,8.93
2018-03-14T03:07:45.989Z,8.50
2018-03-14T03:10:13.428Z,10.30
2018-03-14T03:12:40.861Z,10.25
2018-03-14T03:15:08.289Z,6.87
2018-03-14T03:17:35.728Z,14.52
2018-03-14T03:20:03.544Z,8.45
2018-03-14T03:22:30.972Z,6.28
2018-03-14T03:24:58.396Z,12.93
2018-03-14T03:27:25.832Z,8.40
2018-03-14T03:29:53.260Z,7.18
2018-03-14T03:32:20.683Z,6.95
2018-03-14T03:34:48.116Z,9.50
2018-03-14T03:37:15.556Z,7.22
2018-03-14T03:39:42.978Z,8.27
2018-03-14T03:42:10.405Z,8.32
2018-03-14T03:44:37.824Z,7.72
2018-03-14T03:47:05.251Z,8.57
2018-03-14T03:49:32.676Z,6.62
2018-03-14T03:52:00.105Z,8.27
2018-03-14T03:54:27.546Z,6.03
2018-03-14T03:56:54.976Z,7.15
2018-03-14T03:59:22.409Z,6.65
2018-03-14T04:01:49.831Z,6.90
2018-03-14T04:04:17.261Z,10.20
2018-03-14T04:06:44.693Z,8.88
2018-03-14T04:09:12.155Z,8.60
2018-03-14T04:11:39.564Z,7.45
2018-03-14T04:14:07.393Z,8.07
2018-03-14T04:16:34.807Z,7.45
2018-03-14T04:19:02.331Z,8.68
2018-03-14T04:21:29.688Z,7.68
2018-03-14T04:23:57.128Z,9.25
2018-03-14T04:26:24.558Z,7.60
2018-03-14T04:28:51.984Z,9.93
2018-03-14T04:31:19.803Z,8.85
2018-03-14T04:33:47.236Z,10.38
2018-03-14T04:36:14.681Z,7.50
2018-03-14T04:38:42.116Z,7.50
2018-03-14T04:41:10.018Z,6.78
2018-03-14T04:43:37.486Z,7.97
2018-03-14T04:46:04.897Z,6.50
2018-03-14T04:48:39.808Z,7.90
2018-03-14T05:03:29.185Z,6.35
2018-03-14T05:05:56.620Z,8.13
2018-03-14T05:08:24.037Z,9.30
2018-03-14T05:10:51.552Z,6.30
2018-03-14T05:13:18.973Z,9.32
2018-03-14T05:15:46.725Z,8.38
2018-03-14T05:18:14.160Z,7.45
2018-03-14T05:20:41.585Z,9.75
2018-03-14T05:23:09.025Z,10.20
2018-03-14T05:25:36.445Z,6.90
2018-03-14T05:28:03.895Z,7.75
2018-03-14T05:30:31.322Z,7.35
2018-03-14T05:32:58.751Z,8.45
2018-03-14T05:35:26.599Z,6.10
2018-03-14T05:37:54.020Z,9.07
2018-03-14T05:40:21.441Z,7.12
2018-03-14T05:42:48.864Z,8.40
2018-03-14T05:45:16.289Z,9.23
2018-03-14T05:47:43.795Z,6.40
2018-03-14T05:50:11.633Z,8.50
2018-03-14T05:52:39.057Z,6.78
2018-03-14T05:55:06.484Z,11.00
2018-03-14T05:57:34.801Z,13.65
2018-03-14T06:00:02.227Z,6.62
2018-03-14T06:02:29.693Z,7.62
2018-03-14T06:04:57.147Z,11.45
2018-03-14T06:07:24.605Z,6.37
2018-03-14T06:09:52.032Z,6.60
2018-03-14T06:12:19.855Z,6.20
2018-03-14T06:14:47.285Z,7.97
2018-03-14T06:17:14.697Z,5.70
2018-03-14T06:19:42.125Z,10.52
2018-03-14T06:22:09.553Z,7.50
2018-03-14T06:24:36.975Z,6.25
2018-03-14T06:27:04.403Z,6.60
2018-03-14T06:29:31.830Z,8.00
2018-03-14T06:31:59.248Z,6.80
2018-03-14T06:34:26.689Z,10.75
2018-03-14T06:36:54.097Z,6.65
2018-03-14T06:39:21.520Z,5.07
2018-03-14T06:41:49.342Z,9.95
2018-03-14T06:44:16.789Z,9.70
2018-03-14T06:46:44.213Z,7.57
2018-03-14T06:49:11.655Z,5.05
2018-03-14T06:51:39.062Z,8.27
2018-03-14T06:54:06.517Z,9.82
2018-03-14T06:56:33.927Z,7.45
2018-03-14T06:59:14.123Z,8.27
2018-03-14T07:01:53.293Z,9.07
2018-03-14T07:04:32.563Z,8.35
2018-03-14T07:06:59.976Z,6.78
2018-03-14T07:09:27.435Z,7.95
2018-03-14T07:11:54.897Z,6.50
2018-03-14T07:14:22.308Z,9.38
2018-03-14T07:16:49.740Z,6.60
2018-03-14T07:19:17.176Z,7.60
2018-03-14T07:21:44.990Z,7.32
2018-03-14T07:24:12.421Z,19.25
2018-03-14T07:26:40.368Z,10.10
2018-03-14T07:29:07.796Z,7.10
2018-03-14T07:31:35.239Z,8.95
2018-03-14T07:34:02.692Z,9.10
2018-03-14T07:36:30.120Z,5.93
2018-03-14T07:38:57.544Z,8.98
2018-03-14T07:41:24.974Z,11.27
2018-03-14T07:43:52.405Z,7.22
2018-03-14T07:46:19.843Z,8.18
2018-03-14T07:48:47.249Z,6.97
2018-03-14T07:51:14.704Z,9.45
2018-03-14T07:53:42.125Z,8.57
2018-03-14T07:56:09.573Z,8.82
2018-03-14T07:58:37.001Z,8.55
2018-03-14T08:01:04.829Z,7.97
2018-03-14T08:03:32.247Z,7.90
2018-03-14T08:05:59.657Z,6.97
2018-03-14T08:08:27.101Z,8.02
2018-03-14T08:10:54.538Z,11.20
2018-03-14T08:13:21.984Z,8.55
2018-03-14T08:15:49.392Z,10.93
2018-03-14T08:18:17.278Z,7.68
2018-03-14T08:20:45.088Z,10.00
2018-03-14T08:23:12.529Z,11.43
2018-03-14T08:25:39.956Z,10.07
2018-03-14T08:28:07.396Z,10.27
2018-03-14T08:30:34.827Z,8.38
2018-03-14T08:33:02.251Z,9.45
2018-03-14T08:35:29.668Z,11.15
2018-03-14T08:37:57.498Z,10.25
2018-03-14T08:40:24.917Z,10.32
2018-03-14T08:42:52.374Z,10.15
2018-03-14T08:45:19.805Z,12.30
2018-03-14T08:47:47.222Z,13.45
2018-03-14T08:50:14.650Z,15.45
2018-03-14T08:52:42.086Z,10.55
2018-03-14T08:55:09.513Z,10.10
2018-03-14T08:57:36.944Z,10.10
2018-03-14T09:00:04.381Z,11.32
2018-03-14T09:02:31.826Z,10.27
2018-03-14T09:04:59.245Z,10.10
2018-03-14T09:07:26.685Z,10.85
2018-03-14T09:09:54.109Z,12.68
2018-03-14T09:12:21.524Z,13.50
2018-03-14T09:14:49.357Z,10.88
2018-03-14T09:17:16.788Z,12.60
2018-03-14T09:19:44.265Z,13.13
2018-03-14T09:22:11.767Z,12.95
2018-03-14T09:24:39.126Z,14.90
2018-03-14T09:27:06.547Z,9.57
2018-03-14T09:29:33.976Z,13.02
2018-03-14T09:32:01.404Z,16.40
2018-03-14T09:34:28.828Z,12.20
2018-03-14T09:36:56.669Z,10.27
2018-03-14T09:39:24.094Z,8.90
2018-03-14T09:41:51.556Z,10.70
2018-03-14T09:44:18.962Z,12.60
2018-03-14T09:46:46.396Z,9.48
2018-03-14T09:49:13.831Z,10.32
2018-03-14T09:51:41.256Z,8.95
2018-03-14T09:54:08.747Z,10.93
2018-03-14T09:56:36.512Z,7.40
2018-03-14T09:59:03.932Z,9.40
2018-03-14T10:01:31.369Z,8.52
2018-03-14T10:03:59.193Z,10.15
2018-03-14T10:06:26.657Z,8.43
2018-03-14T10:08:54.091Z,8.32
2018-03-14T10:11:21.539Z,6.87
2018-03-14T10:13:48.951Z,7.60
2018-03-14T10:16:16.379Z,5.65
2018-03-14T10:18:43.813Z,11.27
2018-03-14T10:21:11.248Z,8.30
2018-03-14T10:23:38.696Z,8.20
2018-03-14T10:26:06.128Z,10.50
2018-03-14T10:28:33.560Z,5.20
2018-03-14T10:31:00.983Z,9.18
2018-03-14T10:33:28.409Z,6.05
2018-03-14T10:35:56.240Z,7.90
2018-03-14T10:38:23.711Z,8.00
2018-03-14T10:40:51.198Z,7.30
2018-03-14T10:43:18.593Z,6.90
2018-03-14T10:45:46.024Z,6.70
2018-03-14T10:48:13.449Z,7.85
2018-03-14T10:50:40.962Z,8.02
2018-03-14T10:53:08.373Z,6.65
2018-03-14T10:55:35.808Z,9.07
2018-03-14T10:58:03.243Z,7.82
2018-03-14T11:00:36.247Z,5.78
2018-03-14T11:03:03.672Z,6.97
2018-03-14T11:05:31.088Z,5.28
2018-03-14T11:07:58.917Z,6.18
2018-03-14T11:10:26.345Z,8.63
2018-03-14T11:12:53.776Z,6.75
2018-03-14T11:15:21.197Z,5.00
2018-03-14T11:17:48.646Z,7.65
2018-03-14T11:20:16.078Z,5.65
2018-03-14T11:22:43.517Z,4.70
2018-03-14T11:25:10.947Z,6.10
2018-03-14T11:27:38.783Z,9.32
2018-03-14T11:30:06.201Z,5.43
2018-03-14T11:32:33.641Z,8.77
2018-03-14T11:35:01.061Z,6.43
2018-03-14T11:37:28.505Z,7.60
2018-03-14T11:39:55.950Z,7.68
2018-03-14T11:42:23.415Z,10.82
2018-03-14T11:44:50.841Z,8.32
2018-03-14T11:47:18.284Z,7.25
2018-03-14T11:49:45.712Z,8.93
2018-03-14T11:52:13.548Z,5.78
2018-03-14T11:54:40.980Z,7.75
2018-03-14T11:57:08.420Z,7.35
2018-03-14T11:59:35.847Z,7.55
2018-03-14T12:02:03.693Z,6.97
2018-03-14T12:04:31.130Z,8.52
2018-03-14T12:06:58.578Z,6.55
2018-03-14T12:09:26.013Z,7.37
2018-03-14T12:11:53.443Z,6.10
2018-03-14T12:14:21.276Z,5.47
2018-03-14T12:16:48.731Z,5.53
2018-03-14T12:19:16.163Z,8.20
2018-03-14T12:21:43.628Z,6.85
2018-03-14T12:24:11.100Z,6.30
2018-03-14T12:26:38.553Z,7.75
2018-03-14T12:29:05.986Z,6.28
2018-03-14T12:31:33.450Z,6.90
2018-03-14T12:34:00.872Z,6.53
2018-03-14T12:36:28.309Z,7.00
2018-03-14T12:38:56.157Z,9.35
2018-03-14T12:41:23.598Z,5.10
2018-03-14T12:43:51.033Z,4.55
2018-03-14T12:46:18.482Z,5.90
2018-03-14T12:48:45.908Z,5.25
2018-03-14T12:51:13.740Z,4.55
2018-03-14T12:53:41.184Z,6.18
2018-03-14T12:56:08.627Z,8.30
2018-03-14T12:58:36.057Z,4.65
2018-03-14T13:01:03.483Z,5.25
2018-03-14T13:03:30.924Z,6.45
2018-03-14T13:05:58.368Z,4.60
2018-03-14T13:08:25.817Z,5.53
2018-03-14T13:10:53.274Z,3.67
2018-03-14T13:13:20.731Z,5.12
2018-03-14T13:15:48.168Z,7.97
2018-03-14T13:18:15.611Z,5.32
2018-03-14T13:20:43.036Z,4.43
2018-03-14T13:23:10.477Z,3.83
2018-03-14T13:25:37.973Z,6.47
2018-03-14T13:28:05.357Z,4.00
2018-03-14T13:30:32.792Z,6.55
2018-03-14T13:33:00.224Z,4.68
2018-03-14T13:35:27.661Z,5.32
2018-03-14T13:37:55.112Z,6.85
2018-03-14T13:40:22.545Z,5.22
2018-03-14T13:42:49.986Z,4.90
2018-03-14T13:45:18.184Z,7.10
2018-03-14T13:47:45.635Z,4.60
2018-03-14T13:50:13.059Z,6.10
2018-03-14T13:52:40.510Z,6.10
2018-03-14T13:55:08.332Z,6.37
2018-03-14T13:57:35.776Z,4.70
2018-03-14T14:00:03.274Z,5.43
2018-03-14T14:02:30.685Z,5.72
2018-03-14T14:04:58.125Z,5.55
2018-03-14T14:07:25.568Z,6.20
2018-03-14T14:09:53.000Z,6.80
2018-03-14T14:12:20.833Z,5.90
2018-03-14T14:14:48.273Z,5.53
2018-03-14T14:17:15.724Z,6.75
2018-03-14T14:19:43.144Z,5.63
2018-03-14T14:22:10.584Z,7.00
2018-03-14T14:24:38.022Z,5.40
2018-03-14T14:27:05.477Z,6.50
2018-03-14T14:29:32.888Z,7.20
2018-03-14T14:32:00.328Z,7.20
2018-03-14T14:34:27.767Z,7.18
2018-03-14T14:36:55.205Z,6.43
2018-03-14T14:39:22.654Z,5.78
2018-03-14T14:41:50.097Z,5.10
2018-03-14T14:44:17.535Z,6.72
2018-03-14T14:46:45.001Z,7.10
2018-03-14T14:49:12.425Z,6.97
2018-03-14T14:51:39.864Z,9.50
2018-03-14T14:54:07.700Z,10.15
2018-03-14T14:56:35.187Z,9.05
2018-03-14T14:59:02.584Z,7.87
2018-03-14T15:01:30.028Z,12.35
2018-03-14T15:03:57.466Z,8.68
2018-03-14T15:06:25.307Z,10.15
2018-03-14T15:08:52.756Z,11.00
2018-03-14T15:11:20.189Z,9.50
2018-03-14T15:13:47.660Z,11.52
2018-03-14T15:16:15.104Z,7.75
2018-03-14T15:18:42.537Z,8.32
2018-03-14T15:21:10.087Z,10.23
2018-03-14T15:23:37.494Z,9.00
2018-03-14T15:26:04.933Z,10.18
2018-03-14T15:28:32.376Z,8.18
2018-03-14T15:30:59.835Z,8.30
2018-03-14T15:33:27.278Z,13.23
2018-03-14T15:35:54.708Z,10.68
2018-03-14T15:38:22.155Z,10.30
2018-03-14T15:40:49.588Z,7.60
2018-03-14T15:43:17.029Z,11.10
2018-03-14T15:45:44.466Z,8.63
2018-03-14T15:48:11.904Z,9.82
2018-03-14T15:50:39.342Z,8.90
2018-03-14T15:53:06.788Z,9.30
2018-03-14T15:55:34.225Z,9.30
2018-03-14T15:58:01.685Z,5.75
2018-03-14T16:00:29.141Z,7.87
2018-03-14T16:02:56.593Z,7.78
2018-03-14T16:05:24.022Z,6.72
2018-03-14T16:07:51.473Z,11.95
2018-03-14T16:10:18.906Z,10.17
2018-03-14T16:12:46.345Z,11.00
2018-03-14T16:15:13.790Z,7.07
2018-03-14T16:17:41.224Z,8.45
2018-03-14T16:20:08.691Z,9.80
2018-03-14T16:22:36.135Z,7.07
2018-03-14T16:25:03.560Z,7.10
2018-03-14T16:27:31.009Z,8.27
2018-03-14T16:29:58.874Z,7.75
2018-03-14T16:32:26.700Z,8.98
2018-03-14T16:34:54.128Z,8.27
2018-03-14T16:37:21.565Z,6.47
2018-03-14T16:39:49.072Z,10.32
2018-03-14T16:42:16.529Z,10.07
2018-03-14T16:44:43.979Z,8.23
2018-03-14T16:47:11.416Z,10.13
2018-03-14T16:49:38.858Z,11.32
2018-03-14T16:52:06.310Z,8.48
2018-03-14T16:54:33.733Z,10.32
2018-03-14T16:57:01.160Z,7.53
2018-03-14T16:59:28.603Z,9.17
2018-03-14T17:01:56.045Z,10.43
2018-03-14T17:04:23.491Z,10.17
2018-03-14T17:06:50.936Z,7.30
2018-03-14T17:09:18.790Z,7.00
2018-03-14T17:11:46.170Z,6.83
2018-03-14T17:14:13.616Z,10.73
2018-03-14T17:16:41.046Z,8.57
2018-03-14T17:19:08.551Z,7.37
2018-03-14T17:21:35.969Z,6.43
2018-03-14T17:24:03.804Z,11.60
2018-03-14T17:26:31.274Z,12.80
2018-03-14T17:28:58.768Z,11.45
2018-03-14T17:31:26.347Z,8.52
2018-03-14T17:33:53.886Z,7.32
2018-03-14T17:36:21.337Z,8.52
2018-03-14T17:38:48.797Z,11.50
2018-03-14T17:41:16.346Z,7.70
2018-03-14T17:43:43.836Z,6.22
2018-03-14T17:46:11.343Z,9.70
2018-03-14T17:48:38.794Z,8.07
2018-03-14T17:51:06.252Z,7.93
2018-03-14T17:53:33.734Z,7.00
2018-03-14T17:56:01.198Z,10.50
2018-03-14T17:58:28.618Z,9.27
2018-03-14T18:00:56.049Z,8.85
2018-03-14T18:03:23.490Z,12.10
2018-03-14T18:05:50.912Z,8.43
2018-03-14T18:08:18.359Z,8.23
2018-03-14T18:10:46.193Z,9.57
2018-03-14T18:13:13.674Z,7.75
2018-03-14T18:15:41.089Z,8.40
2018-03-14T18:18:08.557Z,11.73
2018-03-14T18:20:35.990Z,10.23
2018-03-14T18:23:03.418Z,8.63
2018-03-14T18:25:30.856Z,10.43
2018-03-14T18:27:58.288Z,7.28
2018-03-14T18:30:25.720Z,9.75
2018-03-14T18:32:53.278Z,10.90
2018-03-14T18:35:20.724Z,9.38
2018-03-14T18:37:48.160Z,13.77
2018-03-14T18:40:15.588Z,8.43
2018-03-14T18:42:43.043Z,12.00
2018-03-14T18:45:10.472Z,9.77
2018-03-14T18:47:37.917Z,13.95
2018-03-14T18:50:05.390Z,14.60
2018-03-14T18:52:32.795Z,12.77
2018-03-14T18:55:00.617Z,10.90
2018-03-14T18:57:28.044Z,9.80
2018-03-14T18:59:55.501Z,10.77
2018-03-14T19:02:22.920Z,13.40
2018-03-14T19:04:50.363Z,14.55
2018-03-14T19:07:17.794Z,15.32
2018-03-14T19:09:45.230Z,14.85
2018-03-14T19:12:12.673Z,15.57
2018-03-14T19:14:40.118Z,16.50
2018-03-14T19:17:07.552Z,19.55
2018-03-14T19:19:35.406Z,12.98
2018-03-14T19:22:02.817Z,13.18
2018-03-14T19:24:30.263Z,11.30
2018-03-14T19:26:57.713Z,11.60
2018-03-14T19:29:25.156Z,12.20
2018-03-14T19:31:52.982Z,15.23
2018-03-14T19:34:20.416Z,14.63
2018-03-14T19:36:47.850Z,11.10
2018-03-14T19:39:15.298Z,12.20
2018-03-14T19:41:43.122Z,13.35
2018-03-14T19:44:10.570Z,11.85
2018-03-14T19:46:37.992Z,15.43
2018-03-14T19:49:05.434Z,13.77
2018-03-14T19:51:33.254Z,14.52
2018-03-14T19:54:00.688Z,13.02
2018-03-14T19:56:28.134Z,13.05
2018-03-14T19:58:55.580Z,14.63
2018-03-14T20:01:23.013Z,13.27
2018-03-14T20:03:57.683Z,13.93
2018-03-14T20:06:25.126Z,11.70
2018-03-14T20:08:52.674Z,11.02
2018-03-14T20:11:20.382Z,12.52
2018-03-14T20:13:47.821Z,14.50
2018-03-14T20:19:05.266Z,10.63
2018-03-14T20:27:52.296Z,14.38
2018-03-14T20:33:12.502Z,12.02
2018-03-14T20:35:42.643Z,11.55
2018-03-14T20:38:15.703Z,11.68
2018-03-14T20:46:07.158Z,7.03
2018-03-14T20:51:51.130Z,10.55
2018-03-14T20:54:36.523Z,12.27
2018-03-14T20:57:26.469Z,10.73
2018-03-14T20:59:58.471Z,11.38
2018-03-14T21:02:27.263Z,12.70
2018-03-14T21:04:55.566Z,10.57
2018-03-14T21:10:14.870Z,12.37
2018-03-14T21:12:43.761Z,12.25
2018-03-14T21:15:15.207Z,7.60
2018-03-14T21:17:55.235Z,9.15
2018-03-14T21:20:23.581Z,10.25
2018-03-14T21:22:52.540Z,13.85
2018-03-14T21:25:21.197Z,10.20
2018-03-14T21:27:52.727Z,11.68
2018-03-14T21:30:21.666Z,12.05
2018-03-14T21:32:49.659Z,9.77
2018-03-14T21:35:17.851Z,10.32
2018-03-14T21:37:50.641Z,10.20
2018-03-14T21:53:39.516Z,10.55
2018-03-14T21:56:06.971Z,10.02
2018-03-14T21:58:36.527Z,11.35
2018-03-14T22:01:04.811Z,12.85
2018-03-14T22:03:35.326Z,12.75
2018-03-14T22:06:03.558Z,9.95
2018-03-14T22:08:41.625Z,12.27
2018-03-14T22:11:09.515Z,10.20
2018-03-14T22:13:38.219Z,9.30
2018-03-14T22:16:06.375Z,14.13
2018-03-14T22:18:33.861Z,14.02
2018-03-14T22:21:01.327Z,10.02
2018-03-14T22:23:29.209Z,14.30
2018-03-14T22:25:58.044Z,12.63
2018-03-14T22:28:26.371Z,11.00
2018-03-14T22:30:55.687Z,11.45
2018-03-14T22:33:23.160Z,12.80
2018-03-14T22:35:51.598Z,11.38
2018-03-14T22:38:20.965Z,10.90
2018-03-14T22:40:48.822Z,11.52
2018-03-14T22:43:17.178Z,12.23
2018-03-14T22:45:44.621Z,12.45
2018-03-14T22:48:13.413Z,13.10
2018-03-14T22:50:41.068Z,11.93
2018-03-14T22:53:08.507Z,15.35
2018-03-14T22:55:36.939Z,12.40
2018-03-14T22:58:06.053Z,12.43
2018-03-14T23:00:33.498Z,14.32
2018-03-14T23:03:00.973Z,16.20
2018-03-14T23:05:31.047Z,11.10
2018-03-14T23:08:00.882Z,16.35
2018-03-14T23:10:29.138Z,14.20
2018-03-14T23:12:57.317Z,12.30
2018-03-14T23:15:26.011Z,12.75
2018-03-14T23:17:53.779Z,12.45
2018-03-14T23:20:21.221Z,8.73
2018-03-14T23:22:50.208Z,14.43
2018-03-14T23:25:17.667Z,12.13
2018-03-14T23:27:45.915Z,13.68
2018-03-14T23:30:13.862Z,10.68
2018-03-14T23:32:42.075Z,12.35
2018-03-14T23:35:09.654Z,12.13
2018-03-14T23:37:38.213Z,13.00
2018-03-14T23:40:05.795Z,18.20
2018-03-14T23:42:34.924Z,13.98
2018-03-14T23:45:03.371Z,12.35
2018-03-14T23:47:31.809Z,13.55
2018-03-14T23:50:04.025Z,14.80
2018-03-14T23:52:31.470Z,15.10
2018-03-14T23:54:58.945Z,14.93
2018-03-14T23:57:27.497Z,11.75
2018-03-14T23:59:57.700Z,14.65
